.
WxDataArchive / Data Records for 2011-02-19
2011-02-18 February 2011 2011-02-20

Data Records for Saturday, 19 February 2011

Time	Temp	Chill	HIndex	Humid	Dewpt	 Wind 	HiWind	WindDir	Rain 	Barom 
-----	----	-----	------	-----	-----	------	------	-------	-----	----- 
00:00	37.8	37.8	37.8	57	24.0	2	5	248	0.00	30.184 
00:05	37.6	37.6	37.6	57	23.8	3	7	248	0.00	30.184 
00:10	37.5	37.5	37.5	58	24.1	3	7	248	0.00	30.184 
00:15	37.5	37.5	37.5	58	24.1	3	7	248	0.00	30.190 
00:20	37.3	37.3	37.3	58	23.9	3	5	248	0.00	30.190 
00:25	37.2	37.2	37.2	58	23.8	3	6	270	0.00	30.190 
00:30	37.0	37.0	37.0	59	24.0	2	6	248	0.00	30.190 
00:35	37.0	37.0	37.0	59	24.0	3	7	248	0.00	30.190 
00:40	37.0	37.0	37.0	58	23.6	3	5	270	0.00	30.190 
00:45	37.0	37.0	37.0	58	23.6	3	6	248	0.00	30.192 
00:50	37.0	37.0	37.0	57	23.2	3	6	270	0.00	30.192 
00:55	37.0	33.9	37.0	57	23.2	4	6	270	0.00	30.192 
01:00	37.0	37.0	37.0	56	22.8	3	5	270	0.00	30.195 
01:05	36.9	36.9	36.9	56	22.7	3	7	248	0.00	30.195 
01:10	36.8	36.8	36.8	57	23.0	3	6	270	0.00	30.195 
01:15	36.8	36.8	36.8	56	22.6	3	5	270	0.00	30.200 
01:20	36.8	36.8	36.8	56	22.6	3	6	270	0.00	30.200 
01:25	36.8	36.8	36.8	56	22.6	3	7	270	0.00	30.200 
01:30	36.6	36.6	36.6	56	22.4	3	6	270	0.00	30.205 
01:35	36.5	36.5	36.5	56	22.3	3	4	270	0.00	30.205 
01:40	36.5	36.5	36.5	56	22.3	3	6	270	0.00	30.205 
01:45	36.5	36.5	36.5	56	22.3	3	6	270	0.00	30.207 
01:50	36.3	36.3	36.3	56	22.1	3	6	270	0.00	30.207 
01:55	36.3	36.3	36.3	56	22.1	3	6	270	0.00	30.207 
02:00	36.2	32.9	36.2	55	21.6	4	9	270	0.00	30.218 
02:05	36.3	33.0	36.3	54	21.3	4	8	270	0.00	30.218 
02:10	36.2	36.2	36.2	55	21.6	3	7	270	0.00	30.218 
02:15	36.0	32.7	36.0	55	21.4	4	9	270	0.00	30.223 
02:20	36.0	32.7	36.0	54	21.0	4	10	270	0.00	30.223 
02:25	35.9	32.6	35.9	55	21.3	4	9	270	0.00	30.223 
02:30	35.9	32.6	35.9	55	21.3	4	9	270	0.00	30.222 
02:35	35.8	32.5	35.8	54	20.8	4	9	270	0.00	30.222 
02:40	35.6	32.2	35.6	54	20.6	4	10	270	0.00	30.222 
02:45	35.5	35.5	35.5	55	21.0	3	6	248	0.00	30.223 
02:50	35.3	31.9	35.3	54	20.3	4	8	270	0.00	30.223 
02:55	35.2	35.2	35.2	55	20.7	3	6	270	0.00	30.223 
03:00	35.0	35.0	35.0	56	20.9	3	6	248	0.00	30.226 
03:05	34.9	34.9	34.9	56	20.8	3	7	270	0.00	30.226 
03:10	34.7	34.7	34.7	56	20.6	3	6	270	0.00	30.226 
03:15	34.6	34.6	34.6	57	21.0	3	5	270	0.00	30.226 
03:20	34.4	34.4	34.4	57	20.8	3	5	270	0.00	30.226 
03:25	34.3	34.3	34.3	57	20.7	3	5	270	0.00	30.226 
03:30	34.4	30.8	34.4	56	20.3	4	7	270	0.00	30.233 
03:35	34.3	34.3	34.3	55	19.8	3	7	270	0.00	30.233 
03:40	34.3	34.3	34.3	54	19.4	3	9	270	0.00	30.233 
03:45	34.1	30.5	34.1	54	19.2	4	7	270	0.00	30.234 
03:50	34.0	34.0	34.0	54	19.1	2	4	292	0.00	30.234 
03:55	33.8	33.8	33.8	54	18.9	3	5	270	0.00	30.234 
04:00	33.7	33.7	33.7	54	18.8	3	6	270	0.00	30.241 
04:05	33.7	33.7	33.7	54	18.8	3	6	270	0.00	30.241 
04:10	33.5	33.5	33.5	55	19.1	3	5	270	0.00	30.241 
04:15	33.4	33.4	33.4	54	18.6	3	6	315	0.00	30.243 
04:20	33.2	33.2	33.2	54	18.4	2	7	338	0.00	30.243 
04:25	33.1	33.1	33.1	54	18.3	3	7	270	0.00	30.243 
04:30	33.1	33.1	33.1	54	18.3	2	5	248	0.00	30.253 
04:35	32.9	32.9	32.9	54	18.1	3	6	270	0.00	30.253 
04:40	32.9	32.9	32.9	54	18.1	3	7	270	0.00	30.253 
04:45	32.8	32.8	32.8	54	18.0	3	6	338	0.00	30.256 
04:50	32.7	32.7	32.7	54	17.9	3	6	270	0.00	30.256 
04:55	32.7	32.7	32.7	54	17.9	3	6	270	0.00	30.256 
05:00	32.5	32.5	32.5	55	18.2	2	5	270	0.00	30.261 
05:05	32.5	32.5	32.5	55	18.2	3	6	270	0.00	30.261 
05:10	32.4	32.4	32.4	55	18.1	2	5	292	0.00	30.261 
05:15	32.2	32.2	32.2	55	17.9	2	6	338	0.00	30.268 
05:20	32.1	32.1	32.1	56	18.2	2	6	315	0.00	30.268 
05:25	31.9	31.9	31.9	56	18.0	2	7	270	0.00	30.268 
05:30	31.9	31.9	31.9	57	18.4	3	9	248	0.00	30.275 
05:35	31.8	31.8	31.8	57	18.3	2	6	270	0.00	30.275 
05:40	31.6	31.6	31.6	58	18.5	3	7	338	0.00	30.275 
05:45	31.6	31.6	31.6	58	18.5	3	6	315	0.00	30.275 
05:50	31.5	31.5	31.5	58	18.4	2	5	248	0.00	30.275 
05:55	31.3	31.3	31.3	58	18.3	2	5	248	0.00	30.275 
06:00	31.3	31.3	31.3	58	18.3	2	4	338	0.00	30.278 
06:05	31.2	31.2	31.2	58	18.2	2	5	338	0.00	30.278 
06:10	31.2	31.2	31.2	59	18.6	2	5	338	0.00	30.278 
06:15	31.0	31.0	31.0	59	18.4	2	5	338	0.00	30.282 
06:20	30.9	30.9	30.9	60	18.7	2	4	248	0.00	30.282 
06:25	30.9	30.9	30.9	60	18.7	1	3	315	0.00	30.282 
06:30	30.7	30.7	30.7	61	18.9	2	4	270	0.00	30.291 
06:35	30.6	30.6	30.6	61	18.8	1	5	270	0.00	30.291 
06:40	30.6	30.6	30.6	61	18.8	2	5	270	0.00	30.291 
06:45	30.4	30.4	30.4	61	18.6	1	3	270	0.00	30.297 
06:50	30.4	30.4	30.4	62	19.0	2	4	338	0.00	30.297 
06:55	30.3	30.3	30.3	62	18.9	2	3	248	0.00	30.297 
07:00	30.1	30.1	30.1	62	18.7	1	4	315	0.00	30.307 
07:05	30.1	30.1	30.1	62	18.7	2	5	248	0.00	30.307 
07:10	30.0	30.0	30.0	63	19.0	1	3	270	0.00	30.307 
07:15	30.0	30.0	30.0	63	19.0	1	4	338	0.00	30.318 
07:20	30.0	30.0	30.0	63	19.0	1	3	292	0.00	30.318 
07:25	29.8	29.8	29.8	63	18.8	1	5	292	0.00	30.318 
07:30	29.8	29.8	29.8	63	18.8	1	3	315	0.00	30.324 
07:35	29.7	29.7	29.7	63	18.7	1	3	248	0.00	30.324 
07:40	29.7	29.7	29.7	63	18.7	1	4	338	0.00	30.324 
07:45	29.7	29.7	29.7	63	18.7	1	4	248	0.00	30.329 
07:50	29.5	29.5	29.5	63	18.5	1	4	248	0.00	30.329 
07:55	29.5	29.5	29.5	63	18.5	1	2	315	0.00	30.329 
08:00	29.7	29.7	29.7	63	18.7	1	5	338	0.00	30.342 
08:05	29.7	29.7	29.7	63	18.7	2	3	248	0.00	30.342 
08:10	29.8	29.8	29.8	62	18.4	2	6	315	0.00	30.342 
08:15	30.0	30.0	30.0	62	18.6	1	4	338	0.00	30.350 
08:20	30.1	30.1	30.1	61	18.3	2	4	338	0.00	30.350 
08:25	30.4	30.4	30.4	61	18.6	1	4	270	0.00	30.350 
08:30	30.6	30.6	30.6	61	18.8	1	4	315	0.00	30.357 
08:35	30.7	30.7	30.7	60	18.5	2	5	315	0.00	30.357 
08:40	30.7	30.7	30.7	60	18.5	2	5	270	0.00	30.357 
08:45	31.0	31.0	31.0	59	18.4	2	4	270	0.00	30.360 
08:50	31.2	31.2	31.2	59	18.6	2	5	248	0.00	30.360 
08:55	31.2	31.2	31.2	59	18.6	3	5	270	0.00	30.360 
09:00	31.3	31.3	31.3	58	18.3	2	7	292	0.00	30.363 
09:05	31.5	31.5	31.5	58	18.4	3	7	315	0.00	30.363 
09:10	31.6	31.6	31.6	58	18.5	2	4	292	0.00	30.363 
09:15	31.6	31.6	31.6	57	18.1	2	9	270	0.00	30.364 
09:20	31.6	31.6	31.6	56	17.7	2	5	315	0.00	30.364 
09:25	31.9	31.9	31.9	57	18.4	1	6	315	0.00	30.364 
09:30	32.2	32.2	32.2	55	17.9	2	6	0	0.00	30.363 
09:35	32.4	32.4	32.4	55	18.1	2	5	315	0.00	30.363 
09:40	32.5	32.5	32.5	55	18.2	2	5	292	0.00	30.363 
09:45	32.8	32.8	32.8	54	18.0	2	6	0	0.00	30.368 
09:50	33.2	33.2	33.2	54	18.4	1	4	338	0.00	30.368 
09:55	33.2	33.2	33.2	52	17.5	2	7	338	0.00	30.368 
10:00	33.4	33.4	33.4	52	17.7	2	5	338	0.00	30.371 
10:05	33.5	33.5	33.5	52	17.8	2	5	0	0.00	30.371 
10:10	33.8	33.8	33.8	53	18.5	2	5	0	0.00	30.371 
10:15	33.8	33.8	33.8	51	17.6	2	6	270	0.00	30.378 
10:20	34.0	34.0	34.0	51	17.8	2	6	270	0.00	30.378 
10:25	34.3	34.3	34.3	51	18.1	2	4	315	0.00	30.378 
10:30	34.7	34.7	34.7	52	18.9	2	4	270	0.00	30.377 
10:35	35.0	35.0	35.0	51	18.7	1	6	338	0.00	30.377 
10:40	35.3	35.3	35.3	50	18.5	2	5	338	0.00	30.377 
10:45	35.3	35.3	35.3	49	18.1	1	5	338	0.00	30.375 
10:50	35.8	35.8	35.8	50	19.0	1	5	270	0.00	30.375 
10:55	35.8	35.8	35.8	49	18.5	1	4	248	0.00	30.375 
11:00	35.9	35.9	35.9	49	18.6	1	6	0	0.00	30.377 
11:05	36.3	36.3	36.3	49	19.0	1	3	315	0.00	30.377 
11:10	36.5	36.5	36.5	48	18.7	1	4	270	0.00	30.377 
11:15	36.8	36.8	36.8	50	19.9	2	5	292	0.00	30.376 
11:20	37.2	37.2	37.2	47	18.8	2	4	338	0.00	30.376 
11:25	37.5	37.5	37.5	47	19.1	1	6	248	0.00	30.376 
11:30	37.5	37.5	37.5	45	18.1	1	4	338	0.00	30.368 
11:35	37.8	37.8	37.8	46	18.9	1	4	270	0.00	30.368 
11:40	38.2	38.2	38.2	46	19.3	1	3	338	0.00	30.368 
11:45	38.2	38.2	38.2	44	18.2	1	5	270	0.00	30.373 
11:50	38.2	38.2	38.2	43	17.7	1	3	338	0.00	30.373 
11:55	38.3	38.3	38.3	44	18.3	1	5	338	0.00	30.373 
12:00	38.5	38.5	38.5	43	18.0	1	4	315	0.00	30.370 
12:05	38.8	38.8	38.8	44	18.8	1	3	0	0.00	30.370 
12:10	39.1	39.1	39.1	43	18.5	1	5	315	0.00	30.370 
12:15	39.2	39.2	39.2	42	18.1	2	4	22	0.00	30.366 
12:20	39.3	39.3	39.3	43	18.7	1	3	0	0.00	30.366 
12:25	39.5	39.5	39.5	45	19.9	1	3	292	0.00	30.366 
12:30	39.8	39.8	39.8	42	18.6	1	5	292	0.00	30.362 
12:35	39.8	39.8	39.8	42	18.6	1	4	22	0.00	30.362 
12:40	40.1	40.1	40.1	41	18.3	2	6	270	0.00	30.362 
12:45	40.1	40.1	40.1	40	17.7	1	4	22	0.00	30.361 
12:50	40.2	40.2	40.2	42	19.0	1	3	68	0.00	30.361 
12:55	40.5	40.5	40.5	42	19.2	1	3	45	0.00	30.361 
13:00	40.5	40.5	40.5	42	19.2	1	5	0	0.00	30.357 
13:05	40.6	40.6	40.6	41	18.8	1	3	0	0.00	30.357 
13:10	40.8	40.8	40.8	40	18.4	2	7	270	0.00	30.357 
13:15	40.9	40.9	40.9	40	18.5	1	5	270	0.00	30.361 
13:20	41.1	41.1	41.1	40	18.6	0	3	315	0.00	30.361 
13:25	41.2	41.2	41.2	40	18.7	1	5	315	0.00	30.361 
13:30	41.5	41.5	41.5	40	19.0	1	4	270	0.00	30.358 
13:35	41.8	41.8	41.8	39	18.7	1	4	270	0.00	30.358 
13:40	41.8	41.8	41.8	39	18.7	1	3	315	0.00	30.358 
13:45	42.1	42.1	42.1	40	19.5	1	3	315	0.00	30.358 
13:50	42.3	42.3	42.3	39	19.1	1	4	270	0.00	30.358 
13:55	42.6	42.6	42.6	39	19.4	1	3	248	0.00	30.358 
14:00	42.8	42.8	42.8	39	19.6	1	3	315	0.00	30.361 
14:05	42.8	42.8	42.8	37	18.4	1	5	270	0.00	30.361 
14:10	42.9	42.9	42.9	38	19.1	1	6	270	0.00	30.361 
14:15	43.2	43.2	43.2	37	18.7	1	5	248	0.00	30.359 
14:20	43.1	43.1	43.1	36	18.0	0	1	338	0.00	30.359 
14:25	43.2	43.2	43.2	37	18.7	0	2	338	0.00	30.359 
14:30	43.3	43.3	43.3	38	19.4	1	2	315	0.00	30.358 
14:35	43.2	43.2	43.2	36	18.1	1	3	315	0.00	30.358 
14:40	43.3	43.3	43.3	39	20.0	0	3	315	0.00	30.358 
14:45	43.6	43.6	43.6	38	19.7	1	4	248	0.00	30.357 
14:50	43.5	43.5	43.5	38	19.6	2	5	292	0.00	30.357 
14:55	43.2	43.2	43.2	36	18.1	0	3	315	0.00	30.357 
15:00	43.5	43.5	43.5	38	19.6	2	4	270	0.00	30.359 
15:05	43.9	43.9	43.9	35	18.0	1	5	248	0.00	30.359 
15:10	43.8	43.8	43.8	36	18.6	0	2	248	0.00	30.359 
15:15	43.8	43.8	43.8	36	18.6	0	2	248	0.00	30.358 
15:20	43.8	43.8	43.8	35	18.0	1	3	315	0.00	30.358 
15:25	43.9	43.9	43.9	36	18.7	1	3	338	0.00	30.358 
15:30	44.1	44.1	44.1	35	18.2	0	1	338	0.00	30.358 
15:35	44.3	44.3	44.3	36	19.0	0	2	315	0.00	30.358 
15:40	44.3	44.3	44.3	35	18.4	0	3	315	0.00	30.358 
15:45	44.2	44.2	44.2	36	19.0	1	3	315	0.00	30.359 
15:50	43.8	43.8	43.8	35	18.0	1	2	0	0.00	30.359 
15:55	43.6	43.6	43.6	35	17.8	0	3	0	0.00	30.359 
16:00	43.6	43.6	43.6	37	19.1	0	1	68	0.00	30.357 
16:05	43.6	43.6	43.6	36	18.4	1	2	0	0.00	30.357 
16:10	43.8	43.8	43.8	36	18.6	1	3	292	0.00	30.357 
16:15	43.9	43.9	43.9	35	18.0	1	3	292	0.00	30.363 
16:20	43.6	43.6	43.6	35	17.8	0	2	292	0.00	30.363 
16:25	43.6	43.6	43.6	36	18.4	0	2	0	0.00	30.363 
16:30	43.6	43.6	43.6	35	17.8	1	3	270	0.00	30.370 
16:35	43.8	43.8	43.8	35	18.0	1	3	225	0.00	30.370 
16:40	43.8	43.8	43.8	35	18.0	0	2	338	0.00	30.370 
16:45	43.8	43.8	43.8	34	17.3	0	2	338	0.00	30.362 
16:50	43.5	43.5	43.5	35	17.7	0	2	338	0.00	30.362 
16:55	43.2	43.2	43.2	35	17.4	1	3	338	0.00	30.362 
17:00	43.1	43.1	43.1	37	18.6	0	1	338	0.00	30.360 
17:05	42.9	42.9	42.9	36	17.8	0	2	338	0.00	30.360 
17:10	42.8	42.8	42.8	36	17.7	0	3	315	0.00	30.360 
17:15	42.8	42.8	42.8	36	17.7	0	2	315	0.00	30.365 
17:20	42.6	42.6	42.6	36	17.5	0	1	315	0.00	30.365 
17:25	42.6	42.6	42.6	36	17.5	0	2	315	0.00	30.365 
17:30	42.5	42.5	42.5	36	17.4	0	1	315	0.00	30.371 
17:35	42.3	42.3	42.3	36	17.3	0	1	315	0.00	30.371 
17:40	42.3	42.3	42.3	37	17.9	0	1	315	0.00	30.371 
17:45	42.2	42.2	42.2	37	17.8	0	1	315	0.00	30.373 
17:50	41.9	41.9	41.9	37	17.5	0	1	315	0.00	30.373 
17:55	41.6	41.6	41.6	38	17.9	0	0	---	0.00	30.373 
18:00	41.3	41.3	41.3	38	17.6	0	1	315	0.00	30.378 
18:05	41.1	41.1	41.1	39	18.1	0	1	315	0.00	30.378 
18:10	40.8	40.8	40.8	40	18.4	0	0	---	0.00	30.378 
18:15	40.5	40.5	40.5	41	18.7	0	0	---	0.00	30.382 
18:20	40.2	40.2	40.2	41	18.4	0	0	---	0.00	30.382 
18:25	39.9	39.9	39.9	42	18.7	0	0	---	0.00	30.382 
18:30	39.6	39.6	39.6	42	18.4	0	0	---	0.00	30.385 
18:35	39.3	39.3	39.3	43	18.7	0	0	---	0.00	30.385 
18:40	38.9	38.9	38.9	43	18.3	0	0	---	0.00	30.385 
18:45	38.5	38.5	38.5	44	18.5	0	0	---	0.00	30.386 
18:50	38.2	38.2	38.2	44	18.2	0	0	---	0.00	30.386 
18:55	37.8	37.8	37.8	45	18.4	0	0	---	0.00	30.386 
19:00	37.3	37.3	37.3	46	18.4	0	0	---	0.00	30.389 
19:05	36.9	36.9	36.9	46	18.1	0	0	---	0.00	30.389 
19:10	36.5	36.5	36.5	47	18.2	0	0	---	0.00	30.389 
19:15	36.0	36.0	36.0	47	17.7	0	0	---	0.00	30.388 
19:20	35.6	35.6	35.6	49	18.3	0	0	---	0.00	30.388 
19:25	35.2	35.2	35.2	50	18.4	0	0	---	0.00	30.388 
19:30	34.7	34.7	34.7	51	18.4	0	0	---	0.00	30.386 
19:35	34.1	34.1	34.1	52	18.3	0	0	---	0.00	30.386 
19:40	33.7	33.7	33.7	54	18.8	0	0	---	0.00	30.386 
19:45	33.2	33.2	33.2	55	18.8	0	0	---	0.00	30.388 
19:50	32.8	32.8	32.8	56	18.9	0	0	---	0.00	30.388 
19:55	32.5	32.5	32.5	56	18.6	0	0	---	0.00	30.388 
20:00	32.1	32.1	32.1	57	18.6	0	0	---	0.00	30.389 
20:05	31.8	31.8	31.8	58	18.7	0	0	---	0.00	30.389 
20:10	31.5	31.5	31.5	59	18.8	0	0	---	0.00	30.389 
20:15	31.2	31.2	31.2	60	19.0	0	0	---	0.00	30.389 
20:20	30.9	30.9	30.9	62	19.4	0	0	---	0.00	30.389 
20:25	30.7	30.7	30.7	63	19.6	0	0	---	0.00	30.389 
20:30	30.4	30.4	30.4	63	19.3	0	0	---	0.00	30.388 
20:35	30.1	30.1	30.1	64	19.4	0	0	---	0.00	30.388 
20:40	30.0	30.0	30.0	64	19.3	0	0	---	0.00	30.388 
20:45	29.7	29.7	29.7	65	19.4	0	0	---	0.00	30.391 
20:50	29.5	29.5	29.5	65	19.2	0	0	---	0.00	30.391 
20:55	29.4	29.4	29.4	67	19.8	0	0	---	0.00	30.391 
21:00	29.1	29.1	29.1	67	19.5	0	0	---	0.00	30.385 
21:05	29.0	29.0	29.0	68	19.8	0	0	---	0.00	30.385 
21:10	28.8	28.8	28.8	68	19.6	0	0	---	0.00	30.385 
21:15	28.7	28.7	28.7	68	19.5	0	0	---	0.00	30.380 
21:20	28.4	28.4	28.4	69	19.5	0	0	---	0.00	30.380 
21:25	28.2	28.2	28.2	69	19.4	0	0	---	0.00	30.380 
21:30	27.9	27.9	27.9	69	19.1	0	0	---	0.00	30.381 
21:35	27.6	27.6	27.6	69	18.8	0	0	---	0.00	30.381 
21:40	27.5	27.5	27.5	70	19.0	0	0	---	0.00	30.381 
21:45	27.2	27.2	27.2	70	18.7	0	0	---	0.00	30.375 
21:50	27.0	27.0	27.0	71	18.9	0	0	---	0.00	30.375 
21:55	27.0	27.0	27.0	71	18.9	0	0	---	0.00	30.375 
22:00	26.9	26.9	26.9	72	19.1	0	0	---	0.00	30.375 
22:05	26.7	26.7	26.7	72	18.9	0	0	---	0.00	30.375 
22:10	26.7	26.7	26.7	73	19.2	0	0	---	0.00	30.375 
22:15	26.6	26.6	26.6	73	19.1	0	0	---	0.00	30.376 
22:20	26.4	26.4	26.4	73	18.9	0	0	---	0.00	30.376 
22:25	26.4	26.4	26.4	73	18.9	0	0	---	0.00	30.376 
22:30	26.3	26.3	26.3	74	19.2	0	0	---	0.00	30.377 
22:35	26.3	26.3	26.3	74	19.2	0	0	---	0.00	30.377 
22:40	26.1	26.1	26.1	74	19.0	0	0	---	0.00	30.377 
22:45	26.0	26.0	26.0	75	19.2	0	0	---	0.00	30.375 
22:50	25.8	25.8	25.8	74	18.7	0	0	---	0.00	30.375 
22:55	25.7	25.7	25.7	75	18.9	0	0	---	0.00	30.375 
23:00	25.6	25.6	25.6	75	18.8	0	0	---	0.00	30.373 
23:05	25.4	25.4	25.4	76	18.9	0	0	---	0.00	30.373 
23:10	25.3	25.3	25.3	76	18.8	0	0	---	0.00	30.373 
23:15	25.1	25.1	25.1	76	18.6	0	0	---	0.00	30.370 
23:20	25.0	25.0	25.0	76	18.5	0	0	---	0.00	30.370 
23:25	24.8	24.8	24.8	77	18.6	0	0	---	0.00	30.370 
23:30	24.7	24.7	24.7	77	18.5	0	0	---	0.00	30.371 
23:35	24.5	24.5	24.5	77	18.3	0	0	---	0.00	30.371 
23:40	24.4	24.4	24.4	77	18.2	0	0	---	0.00	30.371 
23:45	24.4	24.4	24.4	78	18.5	0	0	---	0.00	30.370 
23:50	24.4	24.4	24.4	78	18.5	0	0	---	0.00	30.370 
23:55	24.2	24.2	24.2	78	18.3	0	0	---	0.00	30.370 

CoCoRaHS
IN-AL-39
A2 Web Hosting
Creative Commons License
GoDaddy
search engine by freefind advanced

loaded 2018-11-19 19:57:04 • last modified 2010-11-18 10:43:29
Privacy PolicyDisclaimer
• wx.awcolley.com is powered by PmWiki v.2002016 •
• all content (unless otherwise noted) © 2018 A W Colley